sensor_id;sensor_type;location;lat;lon;timestamp;pressure;altitude;pressure_sealevel;temperature;humidity
63121;BME280;54478;48.684;20.114;2022-07-05T00:01:21;97937.25;;;18.72;61.80
63121;BME280;54478;48.684;20.114;2022-07-05T00:03:49;97937.44;;;18.82;61.60
63121;BME280;54478;48.684;20.114;2022-07-05T00:06:17;97927.09;;;18.85;61.67
63121;BME280;54478;48.684;20.114;2022-07-05T00:08:46;97919.97;;;18.68;62.17
63121;BME280;54478;48.684;20.114;2022-07-05T00:11:14;97935.19;;;18.88;61.95
63121;BME280;54478;48.684;20.114;2022-07-05T00:13:42;97935.75;;;18.87;62.15
63121;BME280;54478;48.684;20.114;2022-07-05T00:16:11;97933.88;;;18.89;61.90
63121;BME280;54478;48.684;20.114;2022-07-05T00:18:39;97922.41;;;18.72;62.62
63121;BME280;54478;48.684;20.114;2022-07-05T00:21:08;97919.84;;;18.51;63.29
63121;BME280;54478;48.684;20.114;2022-07-05T00:23:36;97925.28;;;18.33;64.00
63121;BME280;54478;48.684;20.114;2022-07-05T00:26:05;97920.22;;;18.39;63.79
63121;BME280;54478;48.684;20.114;2022-07-05T00:28:33;97917.38;;;18.47;63.81
63121;BME280;54478;48.684;20.114;2022-07-05T00:30:58;97933.34;;;18.60;63.11
63121;BME280;54478;48.684;20.114;2022-07-05T00:33:27;97928.47;;;18.45;63.71
63121;BME280;54478;48.684;20.114;2022-07-05T00:35:55;97918.13;;;18.48;62.95
63121;BME280;54478;48.684;20.114;2022-07-05T00:38:23;97921.31;;;18.60;62.71
63121;BME280;54478;48.684;20.114;2022-07-05T00:40:52;97917.94;;;18.61;62.65
63121;BME280;54478;48.684;20.114;2022-07-05T00:43:20;97928.63;;;18.70;62.75
63121;BME280;54478;48.684;20.114;2022-07-05T00:45:49;97922.44;;;18.56;63.21
63121;BME280;54478;48.684;20.114;2022-07-05T00:48:17;97912.69;;;18.50;63.62
63121;BME280;54478;48.684;20.114;2022-07-05T00:50:46;97920.94;;;18.40;64.23
63121;BME280;54478;48.684;20.114;2022-07-05T00:53:14;97919.63;;;18.49;63.30
63121;BME280;54478;48.684;20.114;2022-07-05T00:55:43;97915.88;;;18.62;63.19
63121;BME280;54478;48.684;20.114;2022-07-05T00:58:12;97894.03;;;18.70;61.64
63121;BME280;54478;48.684;20.114;2022-07-05T01:00:40;97891.97;;;18.78;61.75
63121;BME280;54478;48.684;20.114;2022-07-05T01:03:09;97888.56;;;18.80;61.59
63121;BME280;54478;48.684;20.114;2022-07-05T01:05:37;97903.63;;;18.90;61.87
63121;BME280;54478;48.684;20.114;2022-07-05T01:08:06;97898.69;;;18.83;62.00
63121;BME280;54478;48.684;20.114;2022-07-05T01:10:34;97889.69;;;18.84;62.12
63121;BME280;54478;48.684;20.114;2022-07-05T01:13:03;97902.66;;;18.87;61.95
63121;BME280;54478;48.684;20.114;2022-07-05T01:15:31;97890.09;;;18.81;61.98
63121;BME280;54478;48.684;20.114;2022-07-05T01:18:00;97893.06;;;18.83;62.44
63121;BME280;54478;48.684;20.114;2022-07-05T01:20:29;97896.66;;;18.76;62.79
63121;BME280;54478;48.684;20.114;2022-07-05T01:22:59;97907.41;;;18.54;63.83
63121;BME280;54478;48.684;20.114;2022-07-05T01:25:31;97886.00;;;18.35;64.04
63121;BME280;54478;48.684;20.114;2022-07-05T01:28:00;97890.91;;;18.27;64.59
63121;BME280;54478;48.684;20.114;2022-07-05T01:30:30;97894.84;;;18.32;64.75
63121;BME280;54478;48.684;20.114;2022-07-05T01:33:04;97911.75;;;18.32;64.55
63121;BME280;54478;48.684;20.114;2022-07-05T01:35:30;97893.34;;;18.38;64.58
63121;BME280;54478;48.684;20.114;2022-07-05T01:37:58;97898.41;;;18.48;63.89
63121;BME280;54478;48.684;20.114;2022-07-05T01:40:27;97888.63;;;18.49;64.13
63121;BME280;54478;48.684;20.114;2022-07-05T01:42:56;97892.41;;;18.44;64.33
63121;BME280;54478;48.684;20.114;2022-07-05T01:45:25;97901.59;;;18.36;64.78
63121;BME280;54478;48.684;20.114;2022-07-05T01:48:20;97903.31;;;18.39;64.89
63121;BME280;54478;48.684;20.114;2022-07-05T01:50:48;97899.16;;;18.48;64.83
63121;BME280;54478;48.684;20.114;2022-07-05T01:53:23;97890.16;;;18.50;64.56
63121;BME280;54478;48.684;20.114;2022-07-05T01:55:49;97902.53;;;18.31;65.02
63121;BME280;54478;48.684;20.114;2022-07-05T01:58:18;97895.78;;;18.42;64.78
63121;BME280;54478;48.684;20.114;2022-07-05T02:00:52;97889.59;;;18.28;65.17
63121;BME280;54478;48.684;20.114;2022-07-05T02:03:21;97902.53;;;18.39;64.78
63121;BME280;54478;48.684;20.114;2022-07-05T02:05:47;97901.97;;;18.40;64.81
63121;BME280;54478;48.684;20.114;2022-07-05T02:08:17;97903.84;;;18.46;64.67
63121;BME280;54478;48.684;20.114;2022-07-05T02:10:46;97905.91;;;18.45;64.75
63121;BME280;54478;48.684;20.114;2022-07-05T02:13:14;97902.16;;;18.35;64.63
63121;BME280;54478;48.684;20.114;2022-07-05T02:15:42;97896.91;;;18.23;64.90
63121;BME280;54478;48.684;20.114;2022-07-05T02:18:10;97896.53;;;18.27;65.25
63121;BME280;54478;48.684;20.114;2022-07-05T02:20:40;97901.22;;;18.17;65.43
63121;BME280;54478;48.684;20.114;2022-07-05T02:23:08;97901.03;;;18.22;65.52
63121;BME280;54478;48.684;20.114;2022-07-05T02:25:37;97907.81;;;18.27;65.27
63121;BME280;54478;48.684;20.114;2022-07-05T02:28:05;97913.44;;;18.27;65.49
63121;BME280;54478;48.684;20.114;2022-07-05T02:30:34;97913.63;;;18.29;65.35
63121;BME280;54478;48.684;20.114;2022-07-05T02:33:02;97926.03;;;18.18;66.32
63121;BME280;54478;48.684;20.114;2022-07-05T02:35:30;97921.31;;;18.13;65.88
63121;BME280;54478;48.684;20.114;2022-07-05T02:37:59;97924.72;;;18.27;66.07
63121;BME280;54478;48.684;20.114;2022-07-05T02:40:27;97932.22;;;18.40;65.33
63121;BME280;54478;48.684;20.114;2022-07-05T02:42:55;97929.41;;;18.40;65.36
63121;BME280;54478;48.684;20.114;2022-07-05T02:45:24;97929.97;;;18.54;63.83
63121;BME280;54478;48.684;20.114;2022-07-05T02:47:52;97936.34;;;18.62;63.89
63121;BME280;54478;48.684;20.114;2022-07-05T02:50:21;97944.41;;;18.73;63.39
63121;BME280;54478;48.684;20.114;2022-07-05T02:52:49;97935.22;;;18.73;63.18
63121;BME280;54478;48.684;20.114;2022-07-05T02:55:17;97941.19;;;18.85;63.65
63121;BME280;54478;48.684;20.114;2022-07-05T02:57:46;97928.44;;;18.61;64.57
63121;BME280;54478;48.684;20.114;2022-07-05T03:00:14;97937.09;;;18.55;65.34
63121;BME280;54478;48.684;20.114;2022-07-05T03:02:43;97929.41;;;18.48;65.82
63121;BME280;54478;48.684;20.114;2022-07-05T03:05:11;97911.56;;;18.45;65.59
63121;BME280;54478;48.684;20.114;2022-07-05T03:07:39;97930.31;;;18.58;65.49
63121;BME280;54478;48.684;20.114;2022-07-05T03:10:08;97926.59;;;18.40;66.05
63121;BME280;54478;48.684;20.114;2022-07-05T03:12:36;97938.22;;;18.52;65.92
63121;BME280;54478;48.684;20.114;2022-07-05T03:15:02;97936.91;;;18.68;65.24
63121;BME280;54478;48.684;20.114;2022-07-05T03:17:32;97922.41;;;18.80;63.95
63121;BME280;54478;48.684;20.114;2022-07-05T03:20:00;97930.09;;;18.87;63.17
63121;BME280;54478;48.684;20.114;2022-07-05T03:22:29;97940.03;;;19.03;62.60
63121;BME280;54478;48.684;20.114;2022-07-05T03:24:57;97937.41;;;19.05;62.42
63121;BME280;54478;48.684;20.114;2022-07-05T03:27:25;97940.56;;;19.17;62.03
63121;BME280;54478;48.684;20.114;2022-07-05T03:29:54;97942.03;;;19.26;61.67
63121;BME280;54478;48.684;20.114;2022-07-05T03:32:19;97943.72;;;19.29;61.64
63121;BME280;54478;48.684;20.114;2022-07-05T03:34:47;97939.00;;;19.32;61.62
63121;BME280;54478;48.684;20.114;2022-07-05T03:37:16;97938.84;;;19.30;62.16
63121;BME280;54478;48.684;20.114;2022-07-05T03:39:44;97930.59;;;19.16;62.37
63121;BME280;54478;48.684;20.114;2022-07-05T03:42:13;97935.31;;;19.14;62.24
63121;BME280;54478;48.684;20.114;2022-07-05T03:44:41;97941.88;;;19.16;62.33
63121;BME280;54478;48.684;20.114;2022-07-05T03:47:09;97929.84;;;19.16;62.74
63121;BME280;54478;48.684;20.114;2022-07-05T03:49:38;97935.84;;;19.20;62.72
63121;BME280;54478;48.684;20.114;2022-07-05T03:52:06;97934.94;;;19.17;63.03
63121;BME280;54478;48.684;20.114;2022-07-05T03:54:34;97936.59;;;19.28;62.53
63121;BME280;54478;48.684;20.114;2022-07-05T03:57:03;97945.97;;;19.38;62.66
63121;BME280;54478;48.684;20.114;2022-07-05T03:59:31;97944.53;;;19.14;63.42
63121;BME280;54478;48.684;20.114;2022-07-05T04:01:59;97933.41;;;19.16;63.19
63121;BME280;54478;48.684;20.114;2022-07-05T04:04:28;97942.38;;;19.38;62.76
63121;BME280;54478;48.684;20.114;2022-07-05T04:06:56;97929.03;;;19.38;62.60
63121;BME280;54478;48.684;20.114;2022-07-05T04:09:24;97940.72;;;19.27;62.85
63121;BME280;54478;48.684;20.114;2022-07-05T04:11:53;97934.13;;;19.32;63.45
63121;BME280;54478;48.684;20.114;2022-07-05T04:14:21;97935.22;;;19.37;63.59
63121;BME280;54478;48.684;20.114;2022-07-05T04:16:50;97921.16;;;19.29;63.68
63121;BME280;54478;48.684;20.114;2022-07-05T04:19:18;97926.38;;;19.41;63.43
63121;BME280;54478;48.684;20.114;2022-07-05T04:21:46;97927.13;;;19.41;63.10
63121;BME280;54478;48.684;20.114;2022-07-05T04:24:14;97923.38;;;19.38;63.47
63121;BME280;54478;48.684;20.114;2022-07-05T04:26:43;97919.22;;;19.39;63.44
63121;BME280;54478;48.684;20.114;2022-07-05T04:29:11;97929.72;;;19.47;63.77
63121;BME280;54478;48.684;20.114;2022-07-05T04:31:37;97935.31;;;19.62;63.00
63121;BME280;54478;48.684;20.114;2022-07-05T04:34:05;97937.16;;;19.67;63.21
63121;BME280;54478;48.684;20.114;2022-07-05T04:36:34;97928.72;;;19.60;63.66
63121;BME280;54478;48.684;20.114;2022-07-05T04:39:03;97939.75;;;19.73;63.43
63121;BME280;54478;48.684;20.114;2022-07-05T04:41:32;97920.69;;;19.48;64.63
63121;BME280;54478;48.684;20.114;2022-07-05T04:44:01;97924.06;;;19.54;64.26
63121;BME280;54478;48.684;20.114;2022-07-05T04:46:29;97922.13;;;19.65;63.69
63121;BME280;54478;48.684;20.114;2022-07-05T04:48:58;97927.03;;;19.64;64.80
63121;BME280;54478;48.684;20.114;2022-07-05T04:51:26;97922.34;;;19.59;64.48
63121;BME280;54478;48.684;20.114;2022-07-05T04:53:55;97932.63;;;19.72;64.67
63121;BME280;54478;48.684;20.114;2022-07-05T04:56:23;97932.59;;;19.80;64.52
63121;BME280;54478;48.684;20.114;2022-07-05T04:58:52;97931.06;;;19.86;64.26
63121;BME280;54478;48.684;20.114;2022-07-05T05:01:20;97926.00;;;19.85;64.01
63121;BME280;54478;48.684;20.114;2022-07-05T05:03:49;97938.16;;;19.95;64.20
63121;BME280;54478;48.684;20.114;2022-07-05T05:06:17;97939.88;;;19.91;64.61
63121;BME280;54478;48.684;20.114;2022-07-05T05:08:45;97933.53;;;19.82;64.54
63121;BME280;54478;48.684;20.114;2022-07-05T05:11:14;97934.97;;;19.91;64.54
63121;BME280;54478;48.684;20.114;2022-07-05T05:13:42;97928.97;;;19.87;64.09
63121;BME280;54478;48.684;20.114;2022-07-05T05:16:13;97932.50;;;19.95;64.83
63121;BME280;54478;48.684;20.114;2022-07-05T05:18:41;97928.91;;;19.95;64.98
63121;BME280;54478;48.684;20.114;2022-07-05T05:21:10;97928.63;;;19.83;66.03
63121;BME280;54478;48.684;20.114;2022-07-05T05:23:38;97920.16;;;19.83;65.60
63121;BME280;54478;48.684;20.114;2022-07-05T05:26:07;97923.50;;;19.89;65.79
63121;BME280;54478;48.684;20.114;2022-07-05T05:28:35;97923.84;;;19.93;65.64
63121;BME280;54478;48.684;20.114;2022-07-05T05:31:00;97930.78;;;20.00;65.81
63121;BME280;54478;48.684;20.114;2022-07-05T05:33:29;97925.75;;;19.91;65.94
63121;BME280;54478;48.684;20.114;2022-07-05T05:35:57;97924.72;;;20.03;65.97
63121;BME280;54478;48.684;20.114;2022-07-05T05:38:25;97929.00;;;20.12;66.62
63121;BME280;54478;48.684;20.114;2022-07-05T05:40:54;97928.47;;;20.31;63.32
63121;BME280;54478;48.684;20.114;2022-07-05T05:43:22;97928.63;;;20.33;63.81
63121;BME280;54478;48.684;20.114;2022-07-05T05:45:51;97935.53;;;20.40;63.87
63121;BME280;54478;48.684;20.114;2022-07-05T05:48:19;97926.69;;;20.18;66.36
63121;BME280;54478;48.684;20.114;2022-07-05T05:50:48;97928.94;;;20.20;66.12
63121;BME280;54478;48.684;20.114;2022-07-05T05:53:17;97932.22;;;20.34;66.20
63121;BME280;54478;48.684;20.114;2022-07-05T05:55:45;97922.81;;;20.31;65.14
63121;BME280;54478;48.684;20.114;2022-07-05T05:58:19;97912.44;;;20.34;65.38
63121;BME280;54478;48.684;20.114;2022-07-05T06:00:48;97933.88;;;20.37;65.39
63121;BME280;54478;48.684;20.114;2022-07-05T06:03:16;97931.59;;;20.43;65.07
63121;BME280;54478;48.684;20.114;2022-07-05T06:05:45;97933.00;;;20.52;64.54
63121;BME280;54478;48.684;20.114;2022-07-05T06:08:14;97918.03;;;20.42;64.76
63121;BME280;54478;48.684;20.114;2022-07-05T06:10:43;97928.78;;;20.61;64.71
63121;BME280;54478;48.684;20.114;2022-07-05T06:13:13;97923.25;;;20.70;63.78
63121;BME280;54478;48.684;20.114;2022-07-05T06:15:42;97938.88;;;20.89;63.67
63121;BME280;54478;48.684;20.114;2022-07-05T06:18:11;97943.56;;;20.94;64.27
63121;BME280;54478;48.684;20.114;2022-07-05T06:20:40;97943.00;;;20.96;64.26
63121;BME280;54478;48.684;20.114;2022-07-05T06:23:08;97945.88;;;21.06;64.43
63121;BME280;54478;48.684;20.114;2022-07-05T06:25:37;97927.66;;;20.99;64.43
63121;BME280;54478;48.684;20.114;2022-07-05T06:28:07;97944.16;;;21.10;64.50
63121;BME280;54478;48.684;20.114;2022-07-05T06:30:38;97933.97;;;21.07;64.49
63121;BME280;54478;48.684;20.114;2022-07-05T06:33:07;97938.00;;;21.22;63.84
63121;BME280;54478;48.684;20.114;2022-07-05T06:35:36;97942.38;;;21.32;62.75
63121;BME280;54478;48.684;20.114;2022-07-05T06:38:06;97934.72;;;21.43;62.54
63121;BME280;54478;48.684;20.114;2022-07-05T06:40:37;97933.38;;;21.61;61.78
63121;BME280;54478;48.684;20.114;2022-07-05T06:43:07;97922.75;;;21.79;61.16
63121;BME280;54478;48.684;20.114;2022-07-05T06:45:36;97934.19;;;22.09;59.74
63121;BME280;54478;48.684;20.114;2022-07-05T06:48:07;97931.28;;;22.26;57.68
63121;BME280;54478;48.684;20.114;2022-07-05T06:50:40;97924.28;;;22.27;56.98
63121;BME280;54478;48.684;20.114;2022-07-05T06:53:06;97923.81;;;22.58;56.60
63121;BME280;54478;48.684;20.114;2022-07-05T06:55:35;97924.00;;;22.80;54.83
63121;BME280;54478;48.684;20.114;2022-07-05T06:58:07;97915.78;;;22.84;54.80
63121;BME280;54478;48.684;20.114;2022-07-05T07:00:36;97923.69;;;23.05;55.45
63121;BME280;54478;48.684;20.114;2022-07-05T07:03:02;97918.03;;;22.95;55.92
63121;BME280;54478;48.684;20.114;2022-07-05T07:05:30;97930.44;;;23.10;56.31
63121;BME280;54478;48.684;20.114;2022-07-05T07:07:59;97925.50;;;23.10;56.82
63121;BME280;54478;48.684;20.114;2022-07-05T07:10:46;97921.75;;;23.08;56.48
63121;BME280;54478;48.684;20.114;2022-07-05T07:13:12;97922.69;;;23.20;57.18
63121;BME280;54478;48.684;20.114;2022-07-05T07:15:40;97916.09;;;23.27;57.12
63121;BME280;54478;48.684;20.114;2022-07-05T07:18:09;97914.88;;;23.50;57.12
63121;BME280;54478;48.684;20.114;2022-07-05T07:20:37;97913.19;;;23.67;57.00
63121;BME280;54478;48.684;20.114;2022-07-05T07:23:05;97915.81;;;24.04;54.89
63121;BME280;54478;48.684;20.114;2022-07-05T07:25:33;97920.16;;;24.05;55.24
63121;BME280;54478;48.684;20.114;2022-07-05T07:28:02;97921.41;;;24.23;54.95
63121;BME280;54478;48.684;20.114;2022-07-05T07:30:30;97912.41;;;24.27;53.60
63121;BME280;54478;48.684;20.114;2022-07-05T07:32:59;97914.19;;;24.32;53.69
63121;BME280;54478;48.684;20.114;2022-07-05T07:35:27;97920.31;;;24.28;53.09
63121;BME280;54478;48.684;20.114;2022-07-05T07:37:55;97919.34;;;24.45;53.10
63121;BME280;54478;48.684;20.114;2022-07-05T07:40:24;97905.19;;;24.57;51.18
63121;BME280;54478;48.684;20.114;2022-07-05T07:42:52;97915.00;;;24.76;50.47
63121;BME280;54478;48.684;20.114;2022-07-05T07:45:21;97911.06;;;25.03;50.79
63121;BME280;54478;48.684;20.114;2022-07-05T07:47:49;97909.25;;;25.19;50.57
63121;BME280;54478;48.684;20.114;2022-07-05T07:50:17;97907.56;;;25.26;50.14
63121;BME280;54478;48.684;20.114;2022-07-05T07:52:45;97911.97;;;25.39;50.04
63121;BME280;54478;48.684;20.114;2022-07-05T07:55:14;97909.38;;;25.43;49.13
63121;BME280;54478;48.684;20.114;2022-07-05T07:57:43;97910.41;;;25.59;48.32
63121;BME280;54478;48.684;20.114;2022-07-05T08:00:13;97902.63;;;25.84;48.10
63121;BME280;54478;48.684;20.114;2022-07-05T08:02:41;97899.81;;;26.19;47.46
63121;BME280;54478;48.684;20.114;2022-07-05T08:05:13;97896.81;;;26.53;47.19
63121;BME280;54478;48.684;20.114;2022-07-05T08:07:48;97893.84;;;26.63;44.45
63121;BME280;54478;48.684;20.114;2022-07-05T08:10:16;97888.84;;;26.75;43.58
63121;BME280;54478;48.684;20.114;2022-07-05T08:12:42;97896.00;;;26.88;42.81
63121;BME280;54478;48.684;20.114;2022-07-05T08:15:10;97889.25;;;27.07;42.84
63121;BME280;54478;48.684;20.114;2022-07-05T08:17:39;97876.69;;;27.12;43.12
63121;BME280;54478;48.684;20.114;2022-07-05T08:20:27;97890.97;;;27.38;42.25
63121;BME280;54478;48.684;20.114;2022-07-05T08:23:12;97896.81;;;27.66;42.55
63121;BME280;54478;48.684;20.114;2022-07-05T08:25:40;97892.91;;;27.73;42.09
63121;BME280;54478;48.684;20.114;2022-07-05T08:28:09;97892.38;;;27.77;39.08
63121;BME280;54478;48.684;20.114;2022-07-05T08:30:35;97896.25;;;27.95;40.64
63121;BME280;54478;48.684;20.114;2022-07-05T08:33:04;97887.13;;;27.99;40.69
63121;BME280;54478;48.684;20.114;2022-07-05T08:35:32;97881.03;;;28.18;37.46
63121;BME280;54478;48.684;20.114;2022-07-05T08:38:00;97874.38;;;28.28;37.31
63121;BME280;54478;48.684;20.114;2022-07-05T08:40:29;97890.25;;;28.45;36.19
63121;BME280;54478;48.684;20.114;2022-07-05T08:43:01;97880.47;;;28.64;35.36
63121;BME280;54478;48.684;20.114;2022-07-05T08:45:31;97880.69;;;28.54;35.68
63121;BME280;54478;48.684;20.114;2022-07-05T08:48:00;97867.34;;;28.31;35.02
63121;BME280;54478;48.684;20.114;2022-07-05T08:50:29;97876.00;;;28.61;35.11
63121;BME280;54478;48.684;20.114;2022-07-05T08:52:59;97868.72;;;28.58;34.31
63121;BME280;54478;48.684;20.114;2022-07-05T08:55:28;97872.53;;;28.62;34.02
63121;BME280;54478;48.684;20.114;2022-07-05T08:57:56;97862.53;;;28.63;34.38
63121;BME280;54478;48.684;20.114;2022-07-05T09:00:25;97865.59;;;28.81;33.58
63121;BME280;54478;48.684;20.114;2022-07-05T09:02:54;97870.03;;;28.98;33.76
63121;BME280;54478;48.684;20.114;2022-07-05T09:05:25;97864.03;;;29.08;32.72
63121;BME280;54478;48.684;20.114;2022-07-05T09:08:01;97852.00;;;29.26;32.03
63121;BME280;54478;48.684;20.114;2022-07-05T09:10:30;97853.38;;;29.25;32.00
63121;BME280;54478;48.684;20.114;2022-07-05T09:12:57;97853.81;;;29.33;33.16
63121;BME280;54478;48.684;20.114;2022-07-05T09:15:25;97847.97;;;29.31;32.43
63121;BME280;54478;48.684;20.114;2022-07-05T09:17:54;97837.28;;;29.47;32.39
63121;BME280;54478;48.684;20.114;2022-07-05T09:20:22;97850.69;;;29.59;32.19
63121;BME280;54478;48.684;20.114;2022-07-05T09:22:52;97852.00;;;29.72;31.50
63121;BME280;54478;48.684;20.114;2022-07-05T09:25:29;97844.59;;;29.66;31.57
63121;BME280;54478;48.684;20.114;2022-07-05T09:27:59;97844.75;;;29.86;30.97
63121;BME280;54478;48.684;20.114;2022-07-05T09:30:34;97844.69;;;30.00;30.67
63121;BME280;54478;48.684;20.114;2022-07-05T09:33:15;97844.66;;;30.32;29.64
63121;BME280;54478;48.684;20.114;2022-07-05T09:35:54;97833.56;;;30.59;30.75
63121;BME280;54478;48.684;20.114;2022-07-05T09:38:22;97830.19;;;30.46;30.21
63121;BME280;54478;48.684;20.114;2022-07-05T09:41:01;97826.38;;;29.92;30.16
63121;BME280;54478;48.684;20.114;2022-07-05T09:43:28;97825.16;;;29.65;30.71
63121;BME280;54478;48.684;20.114;2022-07-05T09:45:58;97824.72;;;29.25;30.59
63121;BME280;54478;48.684;20.114;2022-07-05T09:48:28;97827.69;;;29.27;30.73
63121;BME280;54478;48.684;20.114;2022-07-05T09:51:13;97836.03;;;29.36;30.66
63121;BME280;54478;48.684;20.114;2022-07-05T09:53:48;97825.91;;;29.19;30.22
63121;BME280;54478;48.684;20.114;2022-07-05T09:56:17;97827.25;;;29.32;30.94
63121;BME280;54478;48.684;20.114;2022-07-05T09:58:44;97810.34;;;29.39;31.24
63121;BME280;54478;48.684;20.114;2022-07-05T10:01:30;97816.44;;;29.31;32.17
63121;BME280;54478;48.684;20.114;2022-07-05T10:03:58;97813.25;;;29.09;31.52
63121;BME280;54478;48.684;20.114;2022-07-05T10:06:27;97814.06;;;29.11;32.10
63121;BME280;54478;48.684;20.114;2022-07-05T10:08:56;97804.59;;;29.23;31.81
63121;BME280;54478;48.684;20.114;2022-07-05T10:11:24;97814.00;;;29.25;32.06
63121;BME280;54478;48.684;20.114;2022-07-05T10:13:54;97816.38;;;29.45;30.58
63121;BME280;54478;48.684;20.114;2022-07-05T10:16:23;97811.09;;;29.71;30.29
63121;BME280;54478;48.684;20.114;2022-07-05T10:18:54;97800.09;;;29.81;29.93
63121;BME280;54478;48.684;20.114;2022-07-05T10:21:24;97807.19;;;29.80;30.35
63121;BME280;54478;48.684;20.114;2022-07-05T10:23:52;97802.88;;;29.95;29.96
63121;BME280;54478;48.684;20.114;2022-07-05T10:26:23;97796.75;;;30.03;30.24
63121;BME280;54478;48.684;20.114;2022-07-05T10:28:53;97795.19;;;30.86;29.04
63121;BME280;54478;48.684;20.114;2022-07-05T10:31:19;97789.16;;;30.10;29.15
63121;BME280;54478;48.684;20.114;2022-07-05T10:33:48;97803.25;;;30.38;29.97
63121;BME280;54478;48.684;20.114;2022-07-05T10:36:18;97790.34;;;30.21;30.41
63121;BME280;54478;48.684;20.114;2022-07-05T10:38:47;97803.09;;;30.17;30.96
63121;BME280;54478;48.684;20.114;2022-07-05T10:41:18;97790.47;;;29.75;29.88
63121;BME280;54478;48.684;20.114;2022-07-05T10:43:53;97794.91;;;29.78;30.30
63121;BME280;54478;48.684;20.114;2022-07-05T10:46:35;97792.50;;;29.88;30.77
63121;BME280;54478;48.684;20.114;2022-07-05T10:49:15;97778.38;;;29.92;30.89
63121;BME280;54478;48.684;20.114;2022-07-05T10:51:43;97792.31;;;30.34;30.00
63121;BME280;54478;48.684;20.114;2022-07-05T10:54:09;97790.09;;;30.66;30.17
63121;BME280;54478;48.684;20.114;2022-07-05T10:56:37;97787.72;;;30.97;29.40
63121;BME280;54478;48.684;20.114;2022-07-05T10:59:08;97769.97;;;31.21;28.90
63121;BME280;54478;48.684;20.114;2022-07-05T11:01:40;97774.25;;;31.20;28.61
63121;BME280;54478;48.684;20.114;2022-07-05T11:04:19;97771.47;;;31.80;28.48
63121;BME280;54478;48.684;20.114;2022-07-05T11:06:48;97765.13;;;31.84;28.39
63121;BME280;54478;48.684;20.114;2022-07-05T11:09:19;97763.91;;;31.30;29.00
63121;BME280;54478;48.684;20.114;2022-07-05T11:17:19;97744.06;;;31.00;28.71
63121;BME280;54478;48.684;20.114;2022-07-05T11:20:01;97761.22;;;30.80;29.19
63121;BME280;54478;48.684;20.114;2022-07-05T11:22:31;97770.41;;;30.59;29.68
63121;BME280;54478;48.684;20.114;2022-07-05T11:24:58;97767.06;;;30.64;29.03
63121;BME280;54478;48.684;20.114;2022-07-05T11:27:27;97757.03;;;30.65;27.33
63121;BME280;54478;48.684;20.114;2022-07-05T11:29:56;97764.34;;;30.87;26.97
63121;BME280;54478;48.684;20.114;2022-07-05T11:35:18;97761.06;;;31.12;29.04
63121;BME280;54478;48.684;20.114;2022-07-05T11:37:58;97758.03;;;30.90;27.79
63121;BME280;54478;48.684;20.114;2022-07-05T11:40:27;97753.81;;;30.93;28.74
63121;BME280;54478;48.684;20.114;2022-07-05T11:42:56;97758.66;;;30.89;28.17
63121;BME280;54478;48.684;20.114;2022-07-05T11:45:25;97749.47;;;30.92;28.45
63121;BME280;54478;48.684;20.114;2022-07-05T11:47:54;97754.34;;;30.88;29.73
63121;BME280;54478;48.684;20.114;2022-07-05T11:50:30;97748.59;;;30.70;30.19
63121;BME280;54478;48.684;20.114;2022-07-05T11:53:00;97749.63;;;30.78;29.62
63121;BME280;54478;48.684;20.114;2022-07-05T11:55:28;97746.03;;;30.96;28.51
63121;BME280;54478;48.684;20.114;2022-07-05T11:57:57;97752.34;;;30.92;28.26
63121;BME280;54478;48.684;20.114;2022-07-05T12:02:59;97737.31;;;30.94;28.27
63121;BME280;54478;48.684;20.114;2022-07-05T12:05:31;97729.47;;;31.32;28.35
63121;BME280;54478;48.684;20.114;2022-07-05T12:08:00;97740.94;;;31.91;28.37
63121;BME280;54478;48.684;20.114;2022-07-05T12:10:29;97727.50;;;31.57;27.51
63121;BME280;54478;48.684;20.114;2022-07-05T12:13:16;97731.81;;;32.19;26.83
63121;BME280;54478;48.684;20.114;2022-07-05T12:15:42;97724.47;;;31.53;27.56
63121;BME280;54478;48.684;20.114;2022-07-05T12:18:10;97722.34;;;32.16;26.84
63121;BME280;54478;48.684;20.114;2022-07-05T12:20:39;97720.72;;;31.89;26.18
63121;BME280;54478;48.684;20.114;2022-07-05T12:23:08;97733.81;;;32.14;26.35
63121;BME280;54478;48.684;20.114;2022-07-05T12:25:36;97719.53;;;31.36;26.67
63121;BME280;54478;48.684;20.114;2022-07-05T12:28:09;97725.47;;;31.22;26.14
63121;BME280;54478;48.684;20.114;2022-07-05T12:30:37;97717.47;;;30.82;26.75
63121;BME280;54478;48.684;20.114;2022-07-05T12:33:07;97719.97;;;31.48;26.23
63121;BME280;54478;48.684;20.114;2022-07-05T12:35:38;97722.97;;;31.70;25.00
63121;BME280;54478;48.684;20.114;2022-07-05T12:40:37;97712.59;;;33.40;23.30
63121;BME280;54478;48.684;20.114;2022-07-05T12:43:14;97705.34;;;33.15;23.40
63121;BME280;54478;48.684;20.114;2022-07-05T12:45:41;97702.28;;;33.09;23.50
63121;BME280;54478;48.684;20.114;2022-07-05T12:48:11;97704.63;;;33.91;22.94
63121;BME280;54478;48.684;20.114;2022-07-05T12:50:50;97703.22;;;33.92;23.19
63121;BME280;54478;48.684;20.114;2022-07-05T12:53:19;97704.00;;;33.95;23.88
63121;BME280;54478;48.684;20.114;2022-07-05T12:56:04;97692.63;;;33.75;23.67
63121;BME280;54478;48.684;20.114;2022-07-05T13:01:28;97690.72;;;33.84;25.06
63121;BME280;54478;48.684;20.114;2022-07-05T13:09:13;97682.06;;;33.84;26.13
63121;BME280;54478;48.684;20.114;2022-07-05T13:11:39;97691.56;;;33.36;27.60
63121;BME280;54478;48.684;20.114;2022-07-05T13:14:08;97688.09;;;32.02;28.78
63121;BME280;54478;48.684;20.114;2022-07-05T13:16:36;97681.50;;;31.57;29.71
63121;BME280;54478;48.684;20.114;2022-07-05T13:19:10;97681.94;;;31.70;29.55
63121;BME280;54478;48.684;20.114;2022-07-05T13:21:39;97666.00;;;31.46;29.52
63121;BME280;54478;48.684;20.114;2022-07-05T13:24:07;97666.44;;;31.39;29.86